Time;durP1;ratioP1;P1;durP2;ratioP2;P2;SDS_P1;SDS_P2;PMS_P1;PMS_P2;Temp;Humidity;BMP_temperature;BMP_pressure;BME280_temperature;BME280_humidity;BME280_pressure;Samples;Min_cycle;Max_cycle;Signal;HPM_P1;HPM_P2
2021/10/16 00:00:45;;;;;;;6.13;5.53;;;;;;;12.83;71.66;95900.31;6151161;23;20215;-85
2021/10/16 00:03:12;;;;;;;6.37;5.53;;;;;;;12.80;72.06;95897.09;6151877;23;20195;-85
2021/10/16 00:05:38;;;;;;;6.23;5.27;;;;;;;12.82;71.64;95902.09;6151976;23;20175;-86
2021/10/16 00:08:05;;;;;;;5.83;5.03;;;;;;;12.78;72.47;95900.84;6151347;23;20182;-85
2021/10/16 00:10:32;;;;;;;6.17;5.27;;;;;;;12.75;72.35;95903.81;6151723;23;20186;-85
2021/10/16 00:12:59;;;;;;;6.13;5.53;;;;;;;12.77;72.37;95902.63;6151298;23;20198;-86
2021/10/16 00:15:26;;;;;;;6.37;5.77;;;;;;;12.77;72.30;95907.00;6151430;23;20201;-85
2021/10/16 00:17:53;;;;;;;6.30;5.63;;;;;;;12.74;72.34;95909.94;6151727;23;20183;-85
2021/10/16 00:20:20;;;;;;;5.37;4.87;;;;;;;12.66;73.07;95902.31;6151793;23;20179;-85
2021/10/16 00:22:46;;;;;;;5.80;5.20;;;;;;;12.64;72.63;95906.88;6151503;23;20205;-87
2021/10/16 00:25:13;;;;;;;6.53;5.33;;;;;;;12.60;73.11;95908.19;6153239;23;20175;-86
2021/10/16 00:27:39;;;;;;;5.30;4.80;;;;;;;12.62;72.96;95904.47;6153380;23;20827;-85
2021/10/16 00:30:09;;;;;;;6.40;5.03;;;;;;;12.68;72.55;95908.91;6153453;23;20170;-85
2021/10/16 00:32:36;;;;;;;6.03;5.43;;;;;;;12.69;72.92;95904.53;6152118;23;20210;-85
2021/10/16 00:35:03;;;;;;;6.43;5.40;;;;;;;12.70;72.88;95906.16;6152200;23;20536;-86
2021/10/16 00:37:29;;;;;;;7.80;5.87;;;;;;;12.65;72.70;95904.09;6153449;23;20170;-85
2021/10/16 00:39:55;;;;;;;6.83;5.60;;;;;;;12.68;72.33;95902.94;6153698;23;20175;-86
2021/10/16 00:42:22;;;;;;;6.47;5.87;;;;;;;12.71;71.72;95899.97;6153930;23;20202;-86
2021/10/16 00:44:49;;;;;;;5.83;5.33;;;;;;;12.68;71.92;95908.09;6152838;23;20174;-85
2021/10/16 00:47:16;;;;;;;6.13;5.53;;;;;;;12.71;71.74;95900.78;6153633;23;20181;-85
2021/10/16 00:49:43;;;;;;;7.13;5.53;;;;;;;12.73;71.28;95893.66;6153296;23;20181;-86
2021/10/16 00:52:09;;;;;;;7.83;6.10;;;;;;;12.73;71.35;95898.00;6151235;23;20203;-86
2021/10/16 00:54:36;;;;;;;5.83;5.33;;;;;;;12.72;71.51;95897.22;6153084;23;20198;-86
2021/10/16 00:57:03;;;;;;;7.60;5.83;;;;;;;12.72;71.20;95899.78;6153334;23;20183;-86
2021/10/16 00:59:30;;;;;;;6.57;5.77;;;;;;;12.61;72.33;95900.28;6152153;23;20206;-86
2021/10/16 01:01:57;;;;;;;7.27;5.87;;;;;;;12.59;71.87;95891.91;6153303;23;20708;-85
2021/10/16 01:04:24;;;;;;;6.27;5.50;;;;;;;12.60;71.62;95897.88;6153121;23;20515;-86
2021/10/16 01:06:51;;;;;;;6.33;5.73;;;;;;;12.63;71.59;95895.72;6153408;23;20819;-85
2021/10/16 01:09:19;;;;;;;7.07;5.97;;;;;;;12.53;72.38;95900.34;6153349;23;20183;-86
2021/10/16 01:11:50;;;;;;;6.50;5.90;;;;;;;12.42;73.01;95895.66;6152914;23;20199;-85
2021/10/16 01:14:17;;;;;;;6.90;6.20;;;;;;;12.39;72.99;95890.84;6152848;23;20206;-85
2021/10/16 01:16:45;;;;;;;6.80;6.20;;;;;;;12.35;72.84;95892.19;6153351;23;20175;-86
2021/10/16 01:19:14;;;;;;;6.63;6.03;;;;;;;12.34;72.96;95895.75;6152686;23;20711;-87
2021/10/16 01:21:44;;;;;;;6.33;5.70;;;;;;;12.37;73.00;95890.25;6153120;23;20199;-86
2021/10/16 01:24:12;;;;;;;6.73;6.03;;;;;;;12.39;72.94;95893.44;6152907;23;20186;-86
2021/10/16 01:26:39;;;;;;;7.03;6.20;;;;;;;12.43;72.96;95890.31;6154052;23;20186;-85
2021/10/16 01:29:08;;;;;;;6.77;6.17;;;;;;;12.50;72.73;95893.00;6151980;23;20556;-84
2021/10/16 01:31:36;;;;;;;6.77;5.93;;;;;;;12.54;72.65;95890.84;6151677;23;20265;-86
2021/10/16 01:34:02;;;;;;;6.57;5.97;;;;;;;12.55;72.73;95885.50;6149812;23;20194;-86
2021/10/16 01:36:39;;;;;;;8.20;5.97;;;;;;;12.53;72.71;95886.66;6152524;23;20179;-86
2021/10/16 01:39:07;;;;;;;6.57;5.60;;;;;;;12.60;72.37;95887.53;6151987;23;20528;-85
2021/10/16 01:41:34;;;;;;;6.27;5.77;;;;;;;12.57;72.54;95883.53;6152843;23;20195;-85
2021/10/16 01:44:00;;;;;;;6.47;5.87;;;;;;;12.58;72.52;95879.16;6152547;23;20171;-85
2021/10/16 01:46:27;;;;;;;8.73;6.83;;;;;;;12.61;72.69;95886.56;6152776;23;20182;-85
2021/10/16 01:48:53;;;;;;;6.87;6.17;;;;;;;12.54;72.95;95877.91;6152735;23;20179;-85
2021/10/16 01:51:20;;;;;;;6.43;5.83;;;;;;;12.48;73.08;95879.47;6152726;23;20660;-85
2021/10/16 01:53:46;;;;;;;8.23;6.43;;;;;;;12.42;73.46;95882.75;6152705;23;20183;-85
2021/10/16 01:56:14;;;;;;;8.03;6.73;;;;;;;12.43;73.57;95884.34;6152910;23;20175;-85
2021/10/16 01:58:41;;;;;;;7.10;6.40;;;;;;;12.48;73.08;95874.31;6152636;23;20182;-85
2021/10/16 02:01:07;;;;;;;6.70;6.00;;;;;;;12.55;72.38;95880.31;6145368;23;20591;-83
2021/10/16 02:03:34;;;;;;;6.93;6.23;;;;;;;12.53;72.72;95882.28;6125975;23;20176;-82
2021/10/16 02:06:00;;;;;;;8.57;6.97;;;;;;;12.56;72.57;95870.78;6127495;23;20182;-83
2021/10/16 02:08:27;;;;;;;7.67;6.73;;;;;;;12.58;72.11;95874.00;6127394;23;20176;-83
2021/10/16 02:10:53;;;;;;;7.47;6.67;;;;;;;12.56;72.26;95870.78;6131919;23;20195;-83
2021/10/16 02:13:21;;;;;;;6.90;6.23;;;;;;;12.59;72.27;95873.03;6156472;23;20183;-83
2021/10/16 02:15:47;;;;;;;8.83;6.70;;;;;;;12.62;72.38;95868.28;6156224;23;20198;-82
2021/10/16 02:18:14;;;;;;;6.80;6.20;;;;;;;12.65;72.28;95867.94;6156224;23;20202;-83
2021/10/16 02:20:40;;;;;;;6.80;6.13;;;;;;;12.63;73.07;95866.50;6155089;23;20174;-83
2021/10/16 02:23:07;;;;;;;8.63;6.43;;;;;;;12.64;72.43;95870.69;6156443;23;20490;-83
2021/10/16 02:25:33;;;;;;;7.07;6.37;;;;;;;12.68;72.53;95864.19;6154632;23;20652;-83
2021/10/16 02:27:59;;;;;;;6.47;5.87;;;;;;;12.59;73.33;95866.06;6155525;23;20270;-82
2021/10/16 02:30:28;;;;;;;6.00;5.40;;;;;;;12.52;73.70;95872.13;6155146;23;20237;-83
2021/10/16 02:32:54;;;;;;;10.00;6.37;;;;;;;12.47;74.46;95869.31;6155704;23;20179;-82
2021/10/16 02:35:21;;;;;;;6.63;5.40;;;;;;;12.49;74.15;95864.78;6155318;23;20199;-83
2021/10/16 02:37:47;;;;;;;6.10;5.50;;;;;;;12.50;74.24;95868.94;6156156;23;20177;-83
2021/10/16 02:40:14;;;;;;;7.77;5.57;;;;;;;12.45;74.30;95864.31;6156385;23;20512;-83
2021/10/16 02:42:41;;;;;;;6.10;5.50;;;;;;;12.44;74.58;95867.88;6156695;23;20275;-84
2021/10/16 02:45:09;;;;;;;6.50;5.73;;;;;;;12.45;73.97;95870.28;6156223;23;20180;-83
2021/10/16 02:47:37;;;;;;;6.10;5.50;;;;;;;12.45;74.39;95865.13;6155552;23;20238;-83
2021/10/16 02:50:04;;;;;;;6.50;5.90;;;;;;;12.49;74.02;95868.16;6156494;23;20178;-83
2021/10/16 02:52:31;;;;;;;6.73;5.90;;;;;;;12.39;75.29;95872.78;6155611;23;20191;-83
2021/10/16 02:54:57;;;;;;;6.10;5.47;;;;;;;12.39;75.06;95871.00;6155729;23;20652;-83
2021/10/16 02:57:24;;;;;;;6.00;5.40;;;;;;;12.41;74.93;95878.56;6155823;23;20179;-83
2021/10/16 02:59:50;;;;;;;5.83;5.23;;;;;;;12.41;75.10;95881.16;6155360;23;20687;-83
2021/10/16 03:02:17;;;;;;;5.97;5.43;;;;;;;12.30;75.81;95879.84;6155244;23;20213;-83
2021/10/16 03:04:45;;;;;;;6.23;5.63;;;;;;;12.19;76.28;95879.47;6155265;23;20182;-83
2021/10/16 03:07:11;;;;;;;7.37;5.83;;;;;;;12.17;76.64;95884.81;6155810;23;20784;-83
2021/10/16 03:09:38;;;;;;;6.50;5.90;;;;;;;12.18;76.43;95883.03;6155648;23;20193;-83
2021/10/16 03:12:05;;;;;;;6.93;6.20;;;;;;;12.25;75.83;95874.41;6154339;23;20213;-83
2021/10/16 03:14:32;;;;;;;6.97;6.27;;;;;;;12.29;75.63;95880.03;6155528;23;20221;-83
2021/10/16 03:17:09;;;;;;;7.40;6.37;;;;;;;12.24;76.07;95880.56;6155206;23;20171;-83
2021/10/16 03:19:36;;;;;;;6.87;6.27;;;;;;;12.10;75.96;95874.44;6155946;23;20159;-83
2021/10/16 03:22:04;;;;;;;7.00;6.30;;;;;;;12.05;76.48;95876.72;6156041;23;20751;-82
2021/10/16 03:24:31;;;;;;;7.43;6.63;;;;;;;12.14;76.18;95871.47;6156098;23;20175;-82
2021/10/16 03:26:57;;;;;;;8.13;7.33;;;;;;;12.17;75.24;95866.75;6156744;23;20175;-83
2021/10/16 03:29:24;;;;;;;8.00;7.23;;;;;;;12.21;75.34;95867.19;6156978;23;20175;-82
2021/10/16 03:31:50;;;;;;;7.40;6.70;;;;;;;12.21;75.00;95873.16;6156576;23;20201;-83
2021/10/16 03:34:17;;;;;;;7.90;7.13;;;;;;;12.13;75.41;95875.81;6155340;23;20181;-83
2021/10/16 03:36:43;;;;;;;8.30;7.43;;;;;;;12.17;75.29;95871.09;6155447;23;20225;-84
2021/10/16 03:39:11;;;;;;;7.73;6.77;;;;;;;12.22;75.21;95874.75;6154435;23;20175;-83
2021/10/16 03:41:38;;;;;;;8.37;6.60;;;;;;;12.26;75.21;95877.78;6154682;23;20195;-84
2021/10/16 03:44:05;;;;;;;7.73;6.93;;;;;;;12.31;74.81;95875.47;6154679;23;20174;-83
2021/10/16 03:46:31;;;;;;;7.97;6.80;;;;;;;12.31;74.80;95876.28;6155864;23;20171;-83
2021/10/16 03:49:01;;;;;;;7.70;6.77;;;;;;;12.29;74.82;95878.25;6154533;23;20262;-83
2021/10/16 03:51:27;;;;;;;9.87;6.53;;;;;;;12.30;75.06;95879.84;6155095;23;20199;-83
2021/10/16 03:53:54;;;;;;;7.60;6.50;;;;;;;12.19;75.55;95884.63;6155735;23;20182;-83
2021/10/16 03:56:22;;;;;;;6.80;6.20;;;;;;;12.09;76.81;95892.66;6155075;23;20268;-83
2021/10/16 03:58:48;;;;;;;9.17;7.17;;;;;;;11.96;77.85;95892.47;6154715;23;20178;-82
2021/10/16 04:01:15;;;;;;;8.00;6.90;;;;;;;11.86;78.28;95892.75;6154784;23;20209;-83
2021/10/16 04:03:41;;;;;;;7.40;6.57;;;;;;;11.73;78.96;95884.78;6155229;23;20186;-83
2021/10/16 04:06:08;;;;;;;8.37;7.57;;;;;;;11.65;79.07;95888.22;6156107;23;20175;-83
2021/10/16 04:08:35;;;;;;;8.20;7.30;;;;;;;11.72;78.36;95885.75;6155900;23;20181;-83
2021/10/16 04:11:04;;;;;;;8.70;7.60;;;;;;;11.80;78.15;95882.31;6154133;23;20702;-83
2021/10/16 04:13:32;;;;;;;9.30;8.40;;;;;;;11.86;77.35;95879.03;6156867;23;20182;-83
2021/10/16 04:15:58;;;;;;;9.60;8.70;;;;;;;11.77;77.52;95881.69;6156366;23;20286;-83
2021/10/16 04:18:25;;;;;;;9.00;8.10;;;;;;;11.74;78.02;95882.00;6156191;23;20178;-83
2021/10/16 04:20:51;;;;;;;9.60;8.70;;;;;;;11.74;77.83;95881.19;6155180;23;20187;-83
2021/10/16 04:23:18;;;;;;;9.50;8.57;;;;;;;11.78;77.90;95882.50;6155213;23;20178;-83
2021/10/16 04:25:47;;;;;;;8.93;8.03;;;;;;;11.83;77.14;95887.13;6154997;23;20624;-83
2021/10/16 04:28:14;;;;;;;8.50;7.70;;;;;;;11.86;77.33;95881.63;6154437;23;20179;-83
2021/10/16 04:30:42;;;;;;;11.50;8.37;;;;;;;11.82;77.20;95878.59;6155644;23;20562;-83
2021/10/16 04:33:08;;;;;;;9.50;8.07;;;;;;;11.72;77.74;95876.25;6155280;23;20175;-83
2021/10/16 04:35:38;;;;;;;9.30;8.40;;;;;;;11.65;78.35;95879.69;6154319;23;20195;-83
2021/10/16 04:38:04;;;;;;;10.33;7.80;;;;;;;11.75;77.99;95882.81;6154858;23;20181;-83
2021/10/16 04:40:34;;;;;;;9.37;8.03;;;;;;;11.81;77.88;95882.13;6156468;23;20256;-84
2021/10/16 04:43:06;;;;;;;8.97;8.07;;;;;;;11.90;77.01;95886.25;6155340;23;20557;-83
2021/10/16 04:45:33;;;;;;;8.93;8.03;;;;;;;11.96;76.94;95887.31;6155271;23;20160;-83
2021/10/16 04:48:01;;;;;;;8.73;7.93;;;;;;;11.98;77.07;95891.31;6156188;23;20175;-83
2021/10/16 04:50:28;;;;;;;8.33;7.53;;;;;;;11.95;76.96;95886.50;6159618;23;20185;-82
2021/10/16 04:52:54;;;;;;;10.67;8.10;;;;;;;11.94;76.79;95884.91;6160699;23;20246;-83
2021/10/16 04:55:23;;;;;;;8.43;7.63;;;;;;;11.85;77.30;95885.97;6160833;23;20202;-83
2021/10/16 04:57:50;;;;;;;8.47;7.67;;;;;;;11.83;77.34;95881.97;6160360;23;20311;-83
2021/10/16 05:00:17;;;;;;;10.40;7.63;;;;;;;11.83;77.33;95887.13;6161011;23;20206;-82
2021/10/16 05:02:44;;;;;;;8.83;8.03;;;;;;;11.88;76.89;95879.66;6162304;23;20207;-83
2021/10/16 05:05:12;;;;;;;8.57;7.67;;;;;;;11.91;76.53;95884.47;6162438;23;20250;-84
2021/10/16 05:07:38;;;;;;;9.80;8.37;;;;;;;11.94;76.37;95881.50;6162397;23;20171;-84
2021/10/16 05:10:08;;;;;;;7.10;6.40;;;;;;;11.93;82.29;95883.28;6159225;23;20258;-84
2021/10/16 05:12:35;;;;;;;6.97;5.60;;;;;;;12.09;84.53;95880.56;6154594;23;20203;-83
2021/10/16 05:15:01;;;;;;;7.83;6.43;;;;;;;12.26;82.01;95890.69;6154587;23;20226;-84
2021/10/16 05:17:29;;;;;;;8.10;5.77;;;;;;;12.47;82.95;95882.22;6155869;23;20175;-83
2021/10/16 05:19:56;;;;;;;6.90;6.20;;;;;;;12.61;80.89;95887.34;6155926;23;20265;-84
2021/10/16 05:22:24;;;;;;;7.57;6.20;;;;;;;12.76;80.21;95889.91;6154999;23;20210;-84
2021/10/16 05:24:50;;;;;;;9.50;6.90;;;;;;;12.83;79.45;95888.19;6155808;23;20179;-84
2021/10/16 05:27:17;;;;;;;7.80;7.00;;;;;;;12.93;78.46;95887.88;6156340;23;20179;-83
2021/10/16 05:29:44;;;;;;;9.43;8.43;;;;;;;12.78;74.37;95890.53;6161016;23;20651;-83
2021/10/16 05:32:11;;;;;;;10.03;8.17;;;;;;;12.51;74.46;95889.41;6162081;23;20191;-83
2021/10/16 05:34:37;;;;;;;9.33;8.33;;;;;;;12.40;74.99;95882.94;6162930;23;20182;-85
2021/10/16 05:37:05;;;;;;;9.60;8.13;;;;;;;12.31;75.13;95886.63;6164944;23;20199;-85
2021/10/16 05:39:33;;;;;;;9.23;7.60;;;;;;;12.08;76.17;95894.44;6161646;23;20186;-85
2021/10/16 05:41:59;;;;;;;8.93;7.67;;;;;;;11.99;76.69;95900.66;6158636;23;20230;-84
2021/10/16 05:44:27;;;;;;;10.17;9.13;;;;;;;11.98;76.69;95898.25;6157857;23;20238;-86
2021/10/16 05:46:54;;;;;;;9.07;7.90;;;;;;;11.93;76.53;95898.00;6155893;23;20175;-86
2021/10/16 05:49:23;;;;;;;8.77;7.97;;;;;;;11.75;77.33;95900.84;6157578;23;20175;-85
2021/10/16 05:51:50;;;;;;;9.93;8.70;;;;;;;11.74;77.45;95901.84;6157096;23;20195;-83
2021/10/16 05:54:16;;;;;;;9.90;8.83;;;;;;;11.76;77.64;95907.66;6157294;23;20491;-85
2021/10/16 05:56:44;;;;;;;9.70;8.73;;;;;;;11.82;77.43;95906.16;6156450;23;20199;-84
2021/10/16 05:59:11;;;;;;;9.43;8.53;;;;;;;11.83;77.43;95905.19;6158553;23;20202;-84
2021/10/16 06:01:38;;;;;;;10.20;8.63;;;;;;;11.85;77.52;95905.81;6158809;23;20207;-83
2021/10/16 06:04:04;;;;;;;9.53;8.53;;;;;;;11.83;77.53;95908.56;6157002;23;20175;-85
2021/10/16 06:06:31;;;;;;;9.53;8.70;;;;;;;11.87;77.21;95904.66;6158299;23;20191;-84
2021/10/16 06:08:57;;;;;;;13.77;9.63;;;;;;;11.88;77.06;95905.47;6156070;23;20655;-85
2021/10/16 06:11:23;;;;;;;10.50;9.50;;;;;;;11.90;76.47;95906.09;6156235;23;20216;-85
2021/10/16 06:13:51;;;;;;;12.13;10.17;;;;;;;11.91;76.74;95908.50;6155272;23;20175;-84
2021/10/16 06:16:18;;;;;;;11.60;10.07;;;;;;;12.22;75.92;95915.25;6155421;23;20202;-85
2021/10/16 06:18:44;;;;;;;9.53;8.63;;;;;;;12.56;74.75;95923.25;6155400;23;20178;-85
2021/10/16 06:21:12;;;;;;;9.60;8.70;;;;;;;12.77;73.71;95914.75;6156355;23;20588;-85
2021/10/16 06:23:38;;;;;;;10.63;8.97;;;;;;;12.99;72.90;95921.56;6154908;23;20175;-85
2021/10/16 06:26:05;;;;;;;9.37;8.47;;;;;;;13.25;71.54;95917.69;6154634;23;20179;-85
2021/10/16 06:28:32;;;;;;;10.80;9.77;;;;;;;13.46;69.87;95923.66;6153555;23;20179;-85
2021/10/16 06:31:00;;;;;;;10.07;9.07;;;;;;;13.77;69.47;95920.72;6155550;23;20202;-84
2021/10/16 06:33:27;;;;;;;10.03;9.03;;;;;;;14.01;68.21;95921.28;6154111;23;20182;-85
2021/10/16 06:35:54;;;;;;;10.57;9.10;;;;;;;14.07;67.67;95916.13;6152525;23;20205;-85
2021/10/16 06:38:22;;;;;;;10.43;9.30;;;;;;;13.83;68.01;95921.75;6153826;23;20728;-85
2021/10/16 06:40:48;;;;;;;11.10;9.93;;;;;;;13.57;68.47;95921.53;6153920;23;20206;-83
2021/10/16 06:43:15;;;;;;;12.03;9.77;;;;;;;13.45;69.93;95929.81;6154053;23;20198;-82
2021/10/16 06:45:41;;;;;;;11.03;9.40;;;;;;;13.70;68.79;95930.19;6160556;23;20171;-84
2021/10/16 06:48:09;;;;;;;11.43;9.43;;;;;;;13.97;68.27;95931.22;6158707;23;20174;-83
2021/10/16 06:50:36;;;;;;;7.40;6.60;;;;;;;14.30;71.45;95933.19;6155206;23;20177;-83
2021/10/16 06:53:02;;;;;;;8.80;7.67;;;;;;;14.73;70.97;95946.81;6152729;23;20175;-83
2021/10/16 06:55:29;;;;;;;10.27;7.63;;;;;;;15.13;69.13;95939.97;6155031;23;20496;-82
2021/10/16 06:57:56;;;;;;;10.77;7.50;;;;;;;15.59;68.85;95945.25;6154314;23;20178;-82
2021/10/16 07:00:22;;;;;;;13.10;7.80;;;;;;;16.02;67.92;95950.03;6153575;23;20207;-83
2021/10/16 07:02:49;;;;;;;9.50;8.60;;;;;;;15.99;61.79;95946.03;6156446;23;20720;-84
2021/10/16 07:05:16;;;;;;;9.70;8.80;;;;;;;16.03;62.08;95946.44;6154230;23;20670;-83
2021/10/16 07:07:43;;;;;;;12.00;10.50;;;;;;;15.97;60.60;95948.03;6155563;23;20178;-83
2021/10/16 07:10:10;;;;;;;11.53;10.40;;;;;;;16.01;60.36;95943.25;6154435;23;20175;-84
2021/10/16 07:12:36;;;;;;;11.00;9.90;;;;;;;16.18;60.82;95949.63;6152777;23;20199;-84
2021/10/16 07:15:12;;;;;;;11.93;10.07;;;;;;;16.19;59.31;95949.41;6153417;23;20191;-90
2021/10/16 07:17:40;;;;;;;12.13;10.60;;;;;;;16.32;60.20;95947.81;6128954;23;20211;-85
2021/10/16 07:20:07;;;;;;;11.30;10.27;;;;;;;16.30;59.33;95944.63;6125433;23;20179;-85
2021/10/16 07:22:35;;;;;;;12.38;11.18;;;;;;;16.43;59.15;95952.38;6150939;23;20195;-86
2021/10/16 07:25:02;;;;;;;13.30;11.63;;;;;;;16.55;59.42;95951.53;6155315;23;20183;-84
2021/10/16 07:27:28;;;;;;;12.90;10.98;;;;;;;16.58;58.99;95960.75;6156592;23;20171;-86
2021/10/16 07:29:55;;;;;;;13.85;12.45;;;;;;;16.64;58.50;95953.97;6155336;23;20186;-85
2021/10/16 07:32:21;;;;;;;13.82;12.02;;;;;;;16.71;57.84;95963.34;6154457;23;20226;-86
2021/10/16 07:34:48;;;;;;;11.93;10.83;;;;;;;16.93;58.20;95961.28;6154006;23;20178;-85
2021/10/16 07:37:14;;;;;;;13.43;12.13;;;;;;;17.12;57.34;95970.00;6154482;23;20198;-85
2021/10/16 07:39:42;;;;;;;12.88;11.57;;;;;;;17.35;57.15;95966.84;6155318;23;20182;-86
2021/10/16 07:42:08;;;;;;;12.63;11.43;;;;;;;17.43;55.95;95962.19;6154890;23;20195;-84
2021/10/16 07:44:35;;;;;;;15.70;12.00;;;;;;;17.52;56.01;95958.31;6154712;23;20178;-86
2021/10/16 07:47:01;;;;;;;12.93;11.63;;;;;;;17.64;56.07;95963.69;6156827;23;20179;-86
2021/10/16 07:49:28;;;;;;;13.20;11.88;;;;;;;17.29;55.03;95965.91;6156157;23;20178;-85
2021/10/16 07:51:54;;;;;;;12.88;11.57;;;;;;;17.40;56.39;95965.22;6155547;23;20198;-86
2021/10/16 07:54:21;;;;;;;12.88;11.65;;;;;;;17.55;56.14;95962.31;6156449;23;20179;-87
2021/10/16 07:56:49;;;;;;;12.60;11.25;;;;;;;17.35;55.02;95962.44;6157465;23;20195;-86
2021/10/16 07:59:15;;;;;;;14.00;10.77;;;;;;;17.57;55.71;95962.91;6156282;23;20697;-85
2021/10/16 08:01:42;;;;;;;13.05;11.75;;;;;;;17.80;55.09;95965.78;6156263;23;20545;-85
2021/10/16 08:04:09;;;;;;;14.02;12.45;;;;;;;17.44;54.29;95958.59;6154457;23;20206;-86
2021/10/16 08:06:35;;;;;;;13.60;12.35;;;;;;;17.57;54.90;95966.31;6156085;23;20171;-85
2021/10/16 08:09:02;;;;;;;15.50;12.98;;;;;;;17.69;53.97;95961.28;6155212;23;20183;-85
2021/10/16 08:11:28;;;;;;;13.45;12.10;;;;;;;17.92;53.20;95960.66;6155259;23;20198;-87
2021/10/16 08:13:56;;;;;;;13.55;12.20;;;;;;;17.88;53.89;95959.53;6157531;23;20179;-85
2021/10/16 08:16:23;;;;;;;12.35;11.18;;;;;;;17.99;54.00;95963.22;6158424;23;20205;-85
2021/10/16 08:18:49;;;;;;;13.15;11.93;;;;;;;18.04;53.50;95958.19;6156575;23;20182;-85
2021/10/16 08:21:16;;;;;;;13.23;11.40;;;;;;;18.18;53.58;95965.66;6157660;23;20202;-86
2021/10/16 08:23:42;;;;;;;13.43;12.13;;;;;;;18.28;52.60;95965.97;6155061;23;20215;-86
2021/10/16 08:26:08;;;;;;;13.30;12.00;;;;;;;18.28;53.46;95959.94;6155868;23;20182;-85
2021/10/16 08:28:35;;;;;;;12.35;10.98;;;;;;;18.43;53.52;95964.84;6156379;23;20181;-86
2021/10/16 08:31:04;;;;;;;13.15;11.55;;;;;;;18.45;52.65;95960.22;6155488;23;20282;-86
2021/10/16 08:33:33;;;;;;;12.25;11.15;;;;;;;18.27;52.28;95964.41;6156427;23;20560;-85
2021/10/16 08:36:00;;;;;;;12.68;11.38;;;;;;;18.24;52.79;95967.44;6156810;23;20175;-85
2021/10/16 08:38:27;;;;;;;12.98;11.70;;;;;;;18.15;53.87;95966.09;6157514;23;20189;-86
2021/10/16 08:40:53;;;;;;;12.77;11.55;;;;;;;18.04;53.93;95968.63;6155515;23;20199;-84
2021/10/16 08:43:20;;;;;;;13.60;11.15;;;;;;;18.05;53.83;95967.59;6157114;23;20182;-86
2021/10/16 08:45:47;;;;;;;13.20;11.90;;;;;;;18.20;53.82;95978.50;6158238;23;20176;-85
2021/10/16 08:48:16;;;;;;;12.52;11.32;;;;;;;18.34;52.90;95968.72;6158543;23;20537;-85
2021/10/16 08:50:44;;;;;;;11.38;10.38;;;;;;;18.39;52.84;95972.28;6157258;23;20214;-86
2021/10/16 08:53:11;;;;;;;11.93;10.82;;;;;;;18.52;52.91;95971.34;6158704;23;20178;-84
2021/10/16 08:55:38;;;;;;;12.32;11.10;;;;;;;18.48;52.53;95978.00;6158934;23;20175;-83
2021/10/16 08:58:05;;;;;;;11.68;10.38;;;;;;;18.51;52.99;95970.56;6163147;23;20672;-86
2021/10/16 09:00:51;;;;;;;11.55;10.45;;;;;;;18.43;52.24;95977.88;6161269;23;20238;-85
2021/10/16 09:03:25;;;;;;;11.52;10.40;;;;;;;18.52;52.90;95977.38;6159111;23;20202;-85
2021/10/16 09:06:03;;;;;;;11.65;10.20;;;;;;;18.50;52.14;95981.22;6158127;23;20183;-84
2021/10/16 09:08:32;;;;;;;13.07;11.43;;;;;;;18.17;53.09;95969.28;6160537;23;20496;-86
2021/10/16 09:11:15;;;;;;;12.48;11.18;;;;;;;18.34;52.91;95977.34;6159769;23;20195;-86
2021/10/16 09:13:45;;;;;;;11.75;10.55;;;;;;;18.24;53.09;95979.66;6159402;23;20151;-86
2021/10/16 09:16:35;;;;;;;12.77;11.50;;;;;;;17.87;54.20;95976.16;6158380;23;20163;-86
2021/10/16 09:19:10;;;;;;;12.32;11.13;;;;;;;17.60;54.25;95976.31;6153295;23;20210;-85
2021/10/16 09:21:39;;;;;;;12.52;10.88;;;;;;;17.66;54.97;95969.50;6158614;23;20218;-84
2021/10/16 09:24:10;;;;;;;12.32;10.95;;;;;;;17.58;55.00;95977.53;6159332;23;20206;-85
2021/10/16 09:26:38;;;;;;;11.70;10.52;;;;;;;17.62;55.85;95981.31;6160074;23;20163;-86
2021/10/16 09:29:06;;;;;;;12.68;11.48;;;;;;;17.24;55.10;95981.34;6157510;23;20182;-85
2021/10/16 09:31:36;;;;;;;11.43;10.30;;;;;;;17.12;56.35;95977.81;6158386;23;20195;-85
2021/10/16 09:34:05;;;;;;;13.45;11.73;;;;;;;17.09;56.70;95978.22;6159119;23;20171;-87
2021/10/16 09:36:31;;;;;;;12.00;10.90;;;;;;;17.23;56.28;95982.34;6158965;23;20199;-86
2021/10/16 09:38:59;;;;;;;13.02;11.82;;;;;;;17.17;55.97;95981.34;6158722;23;20175;-86
2021/10/16 09:41:28;;;;;;;13.13;11.82;;;;;;;17.14;57.06;95976.56;6158961;23;20203;-85
2021/10/16 09:43:55;;;;;;;12.05;10.73;;;;;;;17.31;56.39;95976.09;6158498;23;20474;-86
2021/10/16 09:46:22;;;;;;;11.50;10.23;;;;;;;17.37;56.16;95976.03;6158848;23;20183;-86
2021/10/16 09:48:50;;;;;;;11.68;10.50;;;;;;;17.41;55.94;95974.63;6158520;23;20182;-85
2021/10/16 09:51:19;;;;;;;11.85;10.45;;;;;;;17.54;56.01;95973.75;6161775;23;20269;-83
2021/10/16 09:53:46;;;;;;;10.60;9.55;;;;;;;17.52;55.79;95979.16;6161884;23;20186;-84
2021/10/16 09:56:14;;;;;;;10.95;9.95;;;;;;;17.40;55.86;95974.84;6161119;23;20183;-86
2021/10/16 09:58:41;;;;;;;10.27;9.27;;;;;;;17.38;54.74;95971.63;6158603;23;20253;-85
2021/10/16 10:01:09;;;;;;;13.93;9.52;;;;;;;17.42;55.84;95980.63;6156545;23;20218;-86
2021/10/16 10:03:40;;;;;;;11.77;8.95;;;;;;;17.54;55.72;95973.75;6157965;23;20176;-86
2021/10/16 10:06:08;;;;;;;11.07;10.00;;;;;;;17.54;55.32;95976.34;6157840;23;20621;-85
2021/10/16 10:08:36;;;;;;;9.38;8.48;;;;;;;17.66;55.33;95969.50;6157601;23;20179;-86
2021/10/16 10:11:03;;;;;;;11.00;9.20;;;;;;;17.67;54.71;95962.50;6157826;23;20341;-86
2021/10/16 10:13:30;;;;;;;9.65;8.65;;;;;;;17.60;54.60;95965.91;6158512;23;20178;-85
2021/10/16 10:15:56;;;;;;;9.75;8.85;;;;;;;17.40;55.47;95967.81;6158563;23;20187;-87
2021/10/16 10:21:08;;;;;;;9.20;8.25;;;;;;;16.64;56.02;95977.34;6157768;23;20229;-86
2021/10/16 10:23:51;;;;;;;9.05;8.00;;;;;;;16.59;57.46;95977.94;6157298;23;20201;-86
2021/10/16 10:26:27;;;;;;;8.63;7.82;;;;;;;16.62;57.78;95971.53;6157491;23;20170;-86
2021/10/16 10:28:55;;;;;;;9.82;8.48;;;;;;;16.52;56.70;95970.16;6156420;23;20635;-85
2021/10/16 10:31:57;;;;;;;8.32;7.47;;;;;;;16.39;57.03;95970.19;6156447;23;20194;-86
2021/10/16 10:34:28;;;;;;;8.82;7.90;;;;;;;16.18;57.11;95967.81;6156207;23;20278;-86
2021/10/16 10:36:58;;;;;;;7.55;6.88;;;;;;;16.21;57.09;95970.00;6156859;23;20307;-86
2021/10/16 10:39:49;;;;;;;7.70;7.00;;;;;;;16.43;57.24;95954.97;6155965;23;20179;-86
2021/10/16 10:42:41;;;;;;;7.18;6.45;;;;;;;16.40;57.17;95965.78;6156355;23;20217;-86
2021/10/16 10:45:21;;;;;;;6.10;5.50;;;;;;;16.16;56.47;95962.03;6148769;23;20636;-85
2021/10/16 10:47:57;;;;;;;6.70;6.00;;;;;;;16.17;56.66;95958.41;6155598;23;20500;-85
2021/10/16 10:50:59;;;;;;;6.18;5.57;;;;;;;16.00;57.85;95967.63;6154189;23;20199;-85
2021/10/16 10:53:29;;;;;;;6.03;5.43;;;;;;;16.07;57.53;95966.63;6155011;23;20169;-85
2021/10/16 10:56:01;;;;;;;6.97;6.20;;;;;;;15.93;57.60;95959.06;6155682;23;20181;-85
2021/10/16 10:59:02;;;;;;;6.38;5.78;;;;;;;15.87;58.72;95960.66;6155492;23;20179;-85
2021/10/16 11:02:03;;;;;;;7.43;6.60;;;;;;;15.83;59.51;95965.44;6154866;23;20655;-85
2021/10/16 11:04:45;;;;;;;6.38;5.78;;;;;;;15.92;59.88;95960.06;6154665;23;20166;-85
2021/10/16 11:07:14;;;;;;;6.70;5.97;;;;;;;16.01;59.84;95956.25;6154363;23;20601;-85
2021/10/16 11:09:42;;;;;;;8.60;6.60;;;;;;;16.06;59.50;95953.84;6154213;23;20254;-85
2021/10/16 11:12:11;;;;;;;6.07;5.47;;;;;;;16.26;59.69;95951.22;6154049;23;20190;-85
2021/10/16 11:14:39;;;;;;;6.68;5.97;;;;;;;16.27;58.55;95945.03;6155033;23;20175;-85
2021/10/16 11:17:06;;;;;;;6.72;6.03;;;;;;;15.94;58.92;95945.88;6154480;23;20198;-85
2021/10/16 11:19:49;;;;;;;6.32;5.72;;;;;;;15.77;58.53;95942.88;6154255;23;20185;-86
2021/10/16 11:22:16;;;;;;;7.95;5.97;;;;;;;15.67;59.71;95952.84;6153652;23;20509;-85
2021/10/16 11:24:42;;;;;;;7.15;5.80;;;;;;;15.72;60.50;95942.69;6153430;23;20187;-85
2021/10/16 11:27:10;;;;;;;8.77;5.75;;;;;;;15.74;60.42;95937.28;6153422;23;20171;-85
2021/10/16 11:29:39;;;;;;;6.78;6.13;;;;;;;15.85;59.95;95936.66;6153856;23;20190;-85
2021/10/16 11:32:20;;;;;;;5.63;5.03;;;;;;;15.85;59.90;95932.28;6153903;23;20195;-85
2021/10/16 11:34:58;;;;;;;6.32;5.72;;;;;;;15.91;59.90;95925.50;6153285;23;20163;-86
2021/10/16 11:37:39;;;;;;;7.05;6.35;;;;;;;15.90;59.24;95926.50;6154122;23;20205;-85